Time;durP1;ratioP1;P1;durP2;ratioP2;P2;SDS_P1;SDS_P2;PMS_P1;PMS_P2;Temp;Humidity;BMP_temperature;BMP_pressure;BME280_temperature;BME280_humidity;BME280_pressure;Samples;Min_cycle;Max_cycle;Signal;HPM_P1;HPM_P2
2022/07/17 00:02:01;;;;;;;5.45;2.22;;;;;;;;;;4993471;28;20030;-76
2022/07/17 00:04:26;;;;;;;4.07;2.10;;;;;;;;;;4993274;28;20105;-73
2022/07/17 00:06:52;;;;;;;3.53;2.10;;;;;;;;;;4993541;28;20453;-73
2022/07/17 00:09:17;;;;;;;3.03;2.20;;;;;;;;;;4993411;28;20030;-76
2022/07/17 00:11:43;;;;;;;6.55;2.10;;;;;;;;;;4993551;28;20018;-72
2022/07/17 00:14:08;;;;;;;4.70;2.00;;;;;;;;;;4993120;28;20501;-72
2022/07/17 00:16:34;;;;;;;4.28;1.98;;;;;;;;;;4993315;28;20030;-72
2022/07/17 00:18:59;;;;;;;3.20;1.80;;;;;;;;;;4993065;28;20039;-75
2022/07/17 00:21:25;;;;;;;3.65;2.13;;;;;;;;;;4993313;28;20037;-75
2022/07/17 00:23:51;;;;;;;3.88;2.00;;;;;;;;;;4992808;28;20069;-72
2022/07/17 00:26:16;;;;;;;4.50;2.15;;;;;;;;;;4993407;28;20434;-74
2022/07/17 00:28:42;;;;;;;6.85;2.15;;;;;;;;;;4993227;28;20065;-73
2022/07/17 00:31:07;;;;;;;4.05;1.98;;;;;;;;;;4993428;28;20498;-75
2022/07/17 00:33:33;;;;;;;6.07;2.15;;;;;;;;;;4975479;28;20034;-72
2022/07/17 00:35:59;;;;;;;5.25;2.40;;;;;;;;;;4992862;28;20146;-74
2022/07/17 00:38:24;;;;;;;6.43;2.40;;;;;;;;;;4992518;28;20045;-74
2022/07/17 00:40:53;;;;;;;4.82;2.05;;;;;;;;;;4993061;28;20096;-72
2022/07/17 00:43:19;;;;;;;5.20;2.13;;;;;;;;;;4992709;28;20033;-74
2022/07/17 00:45:44;;;;;;;3.13;2.05;;;;;;;;;;4992844;28;20026;-72
2022/07/17 00:48:10;;;;;;;5.65;1.90;;;;;;;;;;4975244;28;20092;-72
2022/07/17 00:50:39;;;;;;;4.72;2.35;;;;;;;;;;4992744;28;20466;-74
2022/07/17 00:53:05;;;;;;;6.95;2.45;;;;;;;;;;4992278;28;20465;-73
2022/07/17 00:55:31;;;;;;;2.88;1.95;;;;;;;;;;4992269;28;20430;-71
2022/07/17 00:58:00;;;;;;;4.45;2.33;;;;;;;;;;4992506;28;20035;-74
2022/07/17 01:00:26;;;;;;;3.80;1.90;;;;;;;;;;4992890;28;20026;-75
2022/07/17 01:02:52;;;;;;;5.80;2.22;;;;;;;;;;4992559;28;20430;-75
2022/07/17 01:05:19;;;;;;;5.15;2.30;;;;;;;;;;4992566;28;20023;-74
2022/07/17 01:07:45;;;;;;;5.15;2.50;;;;;;;;;;4992398;28;20118;-75
2022/07/17 01:10:12;;;;;;;5.88;2.40;;;;;;;;;;4974130;28;20070;-75
2022/07/17 01:12:38;;;;;;;5.35;2.92;;;;;;;;;;4992278;28;20026;-76
2022/07/17 01:15:04;;;;;;;6.32;2.92;;;;;;;;;;4991832;28;20068;-76
2022/07/17 01:17:31;;;;;;;5.00;2.45;;;;;;;;;;4992305;28;20030;-76
2022/07/17 01:19:56;;;;;;;5.80;2.70;;;;;;;;;;4992163;28;20114;-75
2022/07/17 01:22:22;;;;;;;4.30;2.60;;;;;;;;;;4992237;28;20117;-77
2022/07/17 01:24:48;;;;;;;5.57;2.92;;;;;;;;;;4991877;28;20097;-74
2022/07/17 01:27:14;;;;;;;5.15;2.60;;;;;;;;;;4992147;28;20026;-73
2022/07/17 01:29:40;;;;;;;6.35;2.53;;;;;;;;;;4991856;28;20030;-76
2022/07/17 01:32:05;;;;;;;7.55;2.33;;;;;;;;;;4992027;28;20073;-72
2022/07/17 01:34:31;;;;;;;4.50;2.63;;;;;;;;;;4991387;28;20035;-75
2022/07/17 01:36:57;;;;;;;4.90;2.38;;;;;;;;;;4991926;28;20030;-76
2022/07/17 01:39:52;;;;;;;5.03;2.63;;;;;;;;;;4991643;28;20113;-73
2022/07/17 01:42:09;;;;;;;6.38;2.30;;;;;;;;;;4991736;28;20043;-75
2022/07/17 01:44:34;;;;;;;7.55;2.50;;;;;;;;;;4991174;28;20026;-72
2022/07/17 01:47:00;;;;;;;4.72;2.50;;;;;;;;;;4991605;28;20433;-74
2022/07/17 01:49:26;;;;;;;6.80;2.70;;;;;;;;;;4991363;28;20038;-78
2022/07/17 01:51:51;;;;;;;5.32;2.40;;;;;;;;;;4991477;28;20037;-75
2022/07/17 01:54:17;;;;;;;5.18;2.70;;;;;;;;;;4991413;28;20050;-75
2022/07/17 01:56:42;;;;;;;5.63;2.65;;;;;;;;;;4991362;28;20453;-75
2022/07/17 01:59:08;;;;;;;6.88;2.67;;;;;;;;;;4991243;28;20046;-75
2022/07/17 02:01:33;;;;;;;5.68;2.65;;;;;;;;;;4991419;28;20029;-76
2022/07/17 02:03:59;;;;;;;3.60;2.33;;;;;;;;;;4991036;28;20019;-75
2022/07/17 02:06:24;;;;;;;4.30;2.60;;;;;;;;;;4991085;28;20103;-79
2022/07/17 02:08:50;;;;;;;5.53;2.50;;;;;;;;;;4991048;28;20034;-75
2022/07/17 02:11:17;;;;;;;4.68;2.47;;;;;;;;;;4991275;28;20018;-75
2022/07/17 02:13:42;;;;;;;4.10;2.42;;;;;;;;;;4991278;28;20028;-74
2022/07/17 02:16:08;;;;;;;3.63;2.50;;;;;;;;;;4991035;28;20597;-73
2022/07/17 02:18:34;;;;;;;3.70;2.50;;;;;;;;;;4991078;28;20466;-73
2022/07/17 02:21:00;;;;;;;5.80;2.55;;;;;;;;;;4990215;28;20032;-75
2022/07/17 02:23:25;;;;;;;3.47;2.53;;;;;;;;;;4973445;28;20030;-75
2022/07/17 02:25:50;;;;;;;4.65;2.55;;;;;;;;;;4990731;28;20085;-76
2022/07/17 02:28:16;;;;;;;5.38;2.70;;;;;;;;;;4991167;28;20101;-74
2022/07/17 02:30:41;;;;;;;4.45;2.50;;;;;;;;;;4990954;28;20430;-76
2022/07/17 02:33:07;;;;;;;4.80;2.33;;;;;;;;;;4991089;28;20507;-75
2022/07/17 02:35:35;;;;;;;3.97;2.15;;;;;;;;;;4990508;28;20037;-76
2022/07/17 02:38:01;;;;;;;3.97;2.47;;;;;;;;;;4991129;28;20030;-75
2022/07/17 02:40:26;;;;;;;4.68;2.50;;;;;;;;;;4990921;28;20376;-73
2022/07/17 02:42:51;;;;;;;4.50;2.40;;;;;;;;;;4990850;28;20641;-73
2022/07/17 02:45:21;;;;;;;5.80;2.25;;;;;;;;;;4990341;28;20041;-74
2022/07/17 02:47:47;;;;;;;3.88;2.28;;;;;;;;;;4991048;28;20061;-78
2022/07/17 02:50:12;;;;;;;4.60;2.17;;;;;;;;;;4990554;28;20065;-78
2022/07/17 02:52:38;;;;;;;7.30;2.58;;;;;;;;;;4990695;28;20027;-77
2022/07/17 02:55:04;;;;;;;3.65;2.15;;;;;;;;;;4990463;28;20034;-78
2022/07/17 02:57:30;;;;;;;6.10;2.50;;;;;;;;;;4990732;28;20034;-78
2022/07/17 02:59:55;;;;;;;4.07;2.17;;;;;;;;;;4990134;28;20050;-75
2022/07/17 03:02:21;;;;;;;5.20;2.42;;;;;;;;;;4990568;28;20027;-74
2022/07/17 03:04:46;;;;;;;4.00;2.50;;;;;;;;;;4990270;28;20034;-74
2022/07/17 03:07:11;;;;;;;3.67;2.40;;;;;;;;;;4990530;28;20026;-77
2022/07/17 03:09:37;;;;;;;5.22;2.20;;;;;;;;;;4990601;28;20105;-75
2022/07/17 03:12:02;;;;;;;3.15;2.00;;;;;;;;;;4990811;28;20030;-74
2022/07/17 03:14:28;;;;;;;5.82;2.50;;;;;;;;;;4990215;28;20122;-76
2022/07/17 03:16:53;;;;;;;3.90;2.40;;;;;;;;;;4990305;28;20023;-77
2022/07/17 03:19:18;;;;;;;4.38;2.53;;;;;;;;;;4990459;28;20109;-73
2022/07/17 03:21:44;;;;;;;3.92;2.40;;;;;;;;;;4990427;28;20097;-74
2022/07/17 03:24:09;;;;;;;5.60;2.50;;;;;;;;;;4990391;28;20033;-77
2022/07/17 03:26:35;;;;;;;5.72;2.67;;;;;;;;;;4990178;28;20038;-73
2022/07/17 03:29:00;;;;;;;6.50;2.60;;;;;;;;;;4990644;28;20033;-72
2022/07/17 03:31:26;;;;;;;4.47;2.60;;;;;;;;;;4990352;28;20026;-72
2022/07/17 03:33:51;;;;;;;4.13;2.33;;;;;;;;;;4993098;28;20022;-76
2022/07/17 03:36:17;;;;;;;6.05;2.60;;;;;;;;;;4993780;28;20030;-78
2022/07/17 03:38:42;;;;;;;5.95;2.60;;;;;;;;;;4994165;28;20049;-78
2022/07/17 03:41:07;;;;;;;4.00;2.47;;;;;;;;;;4993952;28;20026;-74
2022/07/17 03:43:33;;;;;;;4.03;2.40;;;;;;;;;;4994151;28;20023;-74
2022/07/17 03:45:58;;;;;;;5.50;2.33;;;;;;;;;;4993709;28;20015;-76
2022/07/17 03:48:23;;;;;;;3.63;2.50;;;;;;;;;;4976523;28;20030;-74
2022/07/17 03:50:49;;;;;;;3.92;2.40;;;;;;;;;;4993687;28;20061;-75
2022/07/17 03:53:14;;;;;;;4.47;2.35;;;;;;;;;;4993802;28;20022;-74
2022/07/17 03:55:40;;;;;;;5.07;2.38;;;;;;;;;;4993271;28;20435;-75
2022/07/17 03:58:05;;;;;;;7.90;2.70;;;;;;;;;;4993651;28;20078;-75
2022/07/17 04:00:31;;;;;;;5.10;2.33;;;;;;;;;;4993442;28;20026;-75
2022/07/17 04:02:56;;;;;;;4.22;2.20;;;;;;;;;;4993760;28;20041;-74
2022/07/17 04:05:22;;;;;;;4.82;2.50;;;;;;;;;;4975826;28;20534;-74
2022/07/17 04:07:47;;;;;;;4.47;2.20;;;;;;;;;;4993423;28;20437;-74
2022/07/17 04:10:14;;;;;;;5.82;2.40;;;;;;;;;;4993472;28;20184;-75
2022/07/17 04:12:40;;;;;;;5.63;2.47;;;;;;;;;;4993435;28;20034;-73
2022/07/17 04:15:07;;;;;;;6.90;2.60;;;;;;;;;;4993234;28;20487;-74
2022/07/17 04:17:32;;;;;;;5.32;2.60;;;;;;;;;;4993218;28;20056;-73
2022/07/17 04:19:58;;;;;;;4.60;2.30;;;;;;;;;;4993531;28;20414;-74
2022/07/17 04:22:24;;;;;;;5.13;2.63;;;;;;;;;;4993191;28;20035;-74
2022/07/17 04:24:50;;;;;;;4.72;2.55;;;;;;;;;;4993347;28;20030;-75
2022/07/17 04:27:16;;;;;;;4.90;2.50;;;;;;;;;;4993043;28;20039;-75
2022/07/17 04:29:42;;;;;;;6.18;2.33;;;;;;;;;;4993063;28;20034;-74
2022/07/17 04:32:07;;;;;;;5.68;2.38;;;;;;;;;;4992845;28;20026;-75
2022/07/17 04:34:33;;;;;;;4.00;2.28;;;;;;;;;;4993054;28;20030;-75
2022/07/17 04:37:00;;;;;;;5.47;2.55;;;;;;;;;;4993058;28;20422;-75
2022/07/17 04:39:25;;;;;;;3.47;2.17;;;;;;;;;;4993248;28;20026;-74
2022/07/17 04:41:51;;;;;;;3.83;2.50;;;;;;;;;;4992779;28;20056;-74
2022/07/17 04:44:16;;;;;;;3.38;2.40;;;;;;;;;;4991957;28;20479;-73
2022/07/17 04:46:42;;;;;;;6.40;2.40;;;;;;;;;;4992491;28;20092;-73
2022/07/17 04:49:07;;;;;;;4.07;2.50;;;;;;;;;;4992807;28;20030;-73
2022/07/17 04:51:33;;;;;;;4.25;2.17;;;;;;;;;;4992596;28;20030;-73
2022/07/17 04:53:58;;;;;;;7.55;2.28;;;;;;;;;;4992789;28;20368;-73
2022/07/17 04:56:24;;;;;;;3.35;2.38;;;;;;;;;;4974801;28;20030;-73
2022/07/17 04:58:49;;;;;;;3.95;2.30;;;;;;;;;;4992408;28;20061;-74
2022/07/17 05:01:15;;;;;;;5.18;2.30;;;;;;;;;;4992609;28;20089;-74
2022/07/17 05:03:40;;;;;;;4.35;2.47;;;;;;;;;;4992480;28;20077;-74
2022/07/17 05:06:06;;;;;;;3.67;2.45;;;;;;;;;;4992136;28;20033;-73
2022/07/17 05:08:31;;;;;;;6.32;2.40;;;;;;;;;;4974719;28;20031;-73
2022/07/17 05:10:57;;;;;;;3.42;2.22;;;;;;;;;;4992317;28;20106;-74
2022/07/17 05:13:22;;;;;;;7.82;2.38;;;;;;;;;;4975095;28;20033;-74
2022/07/17 05:15:49;;;;;;;3.95;2.33;;;;;;;;;;4992111;28;20034;-73
2022/07/17 05:18:14;;;;;;;4.05;2.65;;;;;;;;;;4992385;28;20022;-74
2022/07/17 05:20:40;;;;;;;4.88;2.58;;;;;;;;;;4992230;28;20033;-73
2022/07/17 05:23:06;;;;;;;5.88;2.40;;;;;;;;;;4991796;28;20026;-75
2022/07/17 05:25:32;;;;;;;4.28;2.25;;;;;;;;;;4992073;28;20045;-74
2022/07/17 05:27:57;;;;;;;2.90;2.35;;;;;;;;;;4991792;28;20022;-74
2022/07/17 05:30:23;;;;;;;3.47;2.35;;;;;;;;;;4992193;28;20112;-74
2022/07/17 05:32:48;;;;;;;3.50;2.42;;;;;;;;;;4991833;28;20052;-72
2022/07/17 05:35:14;;;;;;;4.88;2.40;;;;;;;;;;4992075;28;20476;-72
2022/07/17 05:37:39;;;;;;;4.70;2.40;;;;;;;;;;4991516;28;20057;-72
2022/07/17 05:40:05;;;;;;;5.75;2.50;;;;;;;;;;4991957;28;20054;-76
2022/07/17 05:42:30;;;;;;;6.55;2.78;;;;;;;;;;4991556;28;20077;-76
2022/07/17 05:44:56;;;;;;;3.85;2.30;;;;;;;;;;4991993;28;20081;-77
2022/07/17 05:47:21;;;;;;;4.57;2.60;;;;;;;;;;4974320;28;20018;-76
2022/07/17 05:49:47;;;;;;;3.70;2.67;;;;;;;;;;4991838;28;20510;-76
2022/07/17 05:52:12;;;;;;;5.25;2.80;;;;;;;;;;4991510;28;20030;-75
2022/07/17 05:54:37;;;;;;;3.22;2.40;;;;;;;;;;4991683;28;20034;-74
2022/07/17 05:57:03;;;;;;;5.05;2.50;;;;;;;;;;4990945;28;20029;-76
2022/07/17 05:59:29;;;;;;;7.28;2.70;;;;;;;;;;4991404;28;20050;-77
2022/07/17 06:01:54;;;;;;;5.50;2.50;;;;;;;;;;4991191;28;20032;-76
2022/07/17 06:04:20;;;;;;;3.97;2.75;;;;;;;;;;4991391;28;20592;-73
2022/07/17 06:06:45;;;;;;;4.45;2.47;;;;;;;;;;4990993;28;20437;-76
2022/07/17 06:09:11;;;;;;;4.95;2.90;;;;;;;;;;4991526;28;20026;-75
2022/07/17 06:11:36;;;;;;;4.47;2.80;;;;;;;;;;4991360;28;20438;-75
2022/07/17 06:14:01;;;;;;;7.75;3.03;;;;;;;;;;4991449;28;20422;-76
2022/07/17 06:16:27;;;;;;;4.22;2.80;;;;;;;;;;4991017;28;20388;-76
2022/07/17 06:18:52;;;;;;;5.70;3.30;;;;;;;;;;4991117;28;20053;-73
2022/07/17 06:21:18;;;;;;;6.03;2.92;;;;;;;;;;4991213;28;20438;-73
2022/07/17 06:23:43;;;;;;;4.57;3.05;;;;;;;;;;4990867;28;20032;-73
2022/07/17 06:26:09;;;;;;;4.20;2.85;;;;;;;;;;4990979;28;20121;-74
2022/07/17 06:28:34;;;;;;;4.80;3.10;;;;;;;;;;4973535;28;20487;-73
2022/07/17 06:31:00;;;;;;;6.35;3.10;;;;;;;;;;4991132;28;20517;-73
2022/07/17 06:33:25;;;;;;;4.63;2.90;;;;;;;;;;4990712;28;20108;-75
2022/07/17 06:35:50;;;;;;;5.30;2.85;;;;;;;;;;4990858;28;20089;-73
2022/07/17 06:38:16;;;;;;;5.78;2.83;;;;;;;;;;4990349;28;20061;-73
2022/07/17 06:40:42;;;;;;;5.85;3.17;;;;;;;;;;4990795;28;20470;-73
2022/07/17 06:43:07;;;;;;;3.88;3.03;;;;;;;;;;4990798;28;20026;-76
2022/07/17 06:45:33;;;;;;;5.03;2.80;;;;;;;;;;4990975;28;20085;-77
2022/07/17 06:47:58;;;;;;;4.65;3.00;;;;;;;;;;4990622;28;20030;-78
2022/07/17 06:50:24;;;;;;;4.18;3.28;;;;;;;;;;4990931;28;20026;-76
2022/07/17 06:52:50;;;;;;;4.90;3.00;;;;;;;;;;4990445;28;20070;-77
2022/07/17 06:55:15;;;;;;;8.75;3.13;;;;;;;;;;4990538;28;20045;-76
2022/07/17 06:57:41;;;;;;;4.47;3.13;;;;;;;;;;4990249;28;20030;-72
2022/07/17 07:00:08;;;;;;;4.28;3.10;;;;;;;;;;4990569;28;20384;-73
2022/07/17 07:02:34;;;;;;;4.18;3.00;;;;;;;;;;4990600;28;20057;-73
2022/07/17 07:04:59;;;;;;;7.20;3.30;;;;;;;;;;4990548;28;20042;-73
2022/07/17 07:07:25;;;;;;;5.50;3.17;;;;;;;;;;4990687;28;20030;-72
2022/07/17 07:09:50;;;;;;;4.25;2.95;;;;;;;;;;4994585;28;20037;-72
2022/07/17 07:12:16;;;;;;;7.50;3.28;;;;;;;;;;4994336;28;20133;-74
2022/07/17 07:14:41;;;;;;;5.55;3.40;;;;;;;;;;4994482;28;20097;-73
2022/07/17 07:17:06;;;;;;;5.20;3.10;;;;;;;;;;4994381;28;20030;-76
2022/07/17 07:19:32;;;;;;;5.43;3.20;;;;;;;;;;4994512;28;20030;-74
2022/07/17 07:21:57;;;;;;;5.28;3.17;;;;;;;;;;4994421;28;20039;-73
2022/07/17 07:24:23;;;;;;;8.30;3.50;;;;;;;;;;4994222;28;20026;-78
2022/07/17 07:26:48;;;;;;;7.18;3.30;;;;;;;;;;4994503;28;20038;-78
2022/07/17 07:29:14;;;;;;;6.55;3.70;;;;;;;;;;4994114;28;20120;-74
2022/07/17 07:31:39;;;;;;;4.75;3.72;;;;;;;;;;4994244;28;20105;-75
2022/07/17 07:34:05;;;;;;;6.88;3.55;;;;;;;;;;4993947;28;20033;-77
2022/07/17 07:36:30;;;;;;;4.78;3.45;;;;;;;;;;4994250;28;20037;-77
2022/07/17 07:38:56;;;;;;;5.53;3.53;;;;;;;;;;4993901;28;20069;-76
2022/07/17 07:41:21;;;;;;;5.68;3.42;;;;;;;;;;4994151;28;20046;-76
2022/07/17 07:43:47;;;;;;;5.50;3.35;;;;;;;;;;4993956;28;20062;-77
2022/07/17 07:46:12;;;;;;;5.82;3.15;;;;;;;;;;4994016;28;20065;-77
2022/07/17 07:48:37;;;;;;;6.20;3.80;;;;;;;;;;4993526;28;20065;-76
2022/07/17 07:51:03;;;;;;;5.07;3.40;;;;;;;;;;4993849;28;20441;-76
2022/07/17 07:53:28;;;;;;;6.45;3.67;;;;;;;;;;4993761;28;20598;-75
2022/07/17 07:55:54;;;;;;;4.35;3.60;;;;;;;;;;4993929;28;20591;-75
2022/07/17 07:58:19;;;;;;;5.10;3.47;;;;;;;;;;4993415;28;20556;-72
2022/07/17 08:00:45;;;;;;;4.72;3.53;;;;;;;;;;4993763;28;20034;-74
2022/07/17 08:03:12;;;;;;;5.95;3.75;;;;;;;;;;4993648;28;20051;-75
2022/07/17 08:05:38;;;;;;;7.15;3.80;;;;;;;;;;4993733;28;20031;-78
2022/07/17 08:08:04;;;;;;;6.80;3.95;;;;;;;;;;4993167;28;20557;-78
2022/07/17 08:10:30;;;;;;;4.97;3.80;;;;;;;;;;4993532;28;20026;-78
2022/07/17 08:12:56;;;;;;;10.20;3.58;;;;;;;;;;4993525;28;20541;-74
2022/07/17 08:15:22;;;;;;;8.02;3.50;;;;;;;;;;4993511;28;20022;-74
2022/07/17 08:17:50;;;;;;;4.82;3.67;;;;;;;;;;4993289;28;20517;-74
2022/07/17 08:20:16;;;;;;;4.63;3.50;;;;;;;;;;4993526;28;20030;-77
2022/07/17 08:22:43;;;;;;;7.20;3.83;;;;;;;;;;4992980;28;20080;-77
2022/07/17 08:25:09;;;;;;;5.65;3.35;;;;;;;;;;4993162;28;20030;-73
2022/07/17 08:27:36;;;;;;;5.60;3.50;;;;;;;;;;4993228;28;20084;-75
2022/07/17 08:30:06;;;;;;;5.90;3.60;;;;;;;;;;4993129;28;20034;-74
2022/07/17 08:32:32;;;;;;;5.15;3.30;;;;;;;;;;4993243;28;20026;-73
2022/07/17 08:34:57;;;;;;;4.35;3.50;;;;;;;;;;4993018;28;20081;-75
2022/07/17 08:37:24;;;;;;;8.30;3.50;;;;;;;;;;4992858;28;20054;-74
2022/07/17 08:39:49;;;;;;;6.88;3.50;;;;;;;;;;4992765;28;20030;-74
2022/07/17 08:42:16;;;;;;;6.95;3.33;;;;;;;;;;4992999;28;20026;-73
2022/07/17 08:44:45;;;;;;;4.13;2.97;;;;;;;;;;4992976;28;20110;-73
2022/07/17 08:47:12;;;;;;;7.83;3.20;;;;;;;;;;4993010;28;20037;-74
2022/07/17 08:49:42;;;;;;;5.95;3.00;;;;;;;;;;4992937;28;20033;-74
2022/07/17 08:52:09;;;;;;;4.95;3.03;;;;;;;;;;4992796;28;20022;-74
2022/07/17 08:54:35;;;;;;;3.97;3.05;;;;;;;;;;4992623;28;20026;-73
2022/07/17 08:57:02;;;;;;;4.60;2.80;;;;;;;;;;4992641;28;20073;-72
2022/07/17 08:59:27;;;;;;;7.05;3.05;;;;;;;;;;4992113;28;20043;-72
2022/07/17 09:01:53;;;;;;;7.50;3.33;;;;;;;;;;4992732;28;20045;-72
2022/07/17 09:04:18;;;;;;;4.47;3.15;;;;;;;;;;4992252;28;20053;-73
2022/07/17 09:06:44;;;;;;;3.42;2.80;;;;;;;;;;4992680;28;20030;-74
2022/07/17 09:09:12;;;;;;;6.55;3.88;;;;;;;;;;4992384;28;20461;-73
2022/07/17 09:11:47;;;;;;;5.78;3.00;;;;;;;;;;4992413;28;20037;-74
2022/07/17 09:14:12;;;;;;;3.95;3.00;;;;;;;;;;4992371;28;20035;-74
2022/07/17 09:16:52;;;;;;;6.25;2.85;;;;;;;;;;4974725;28;20092;-76
2022/07/17 09:19:32;;;;;;;;;;;;;;;;;;4992383;28;20398;-74
2022/07/17 09:22:07;;;;;;;3.97;2.93;;;;;;;;;;4992618;28;19910;-74
2022/07/17 09:24:47;;;;;;;5.47;2.70;;;;;;;;;;4991966;28;20262;-74
2022/07/17 09:27:23;;;;;;;5.20;2.93;;;;;;;;;;4992343;28;20041;-74
2022/07/17 09:29:58;;;;;;;6.93;3.00;;;;;;;;;;4974184;28;20026;-72
2022/07/17 09:32:26;;;;;;;3.85;2.67;;;;;;;;;;4991899;28;20027;-72
2022/07/17 09:34:54;;;;;;;5.47;2.75;;;;;;;;;;4991653;28;20386;-72
2022/07/17 09:37:22;;;;;;;5.57;2.85;;;;;;;;;;4991603;28;20022;-72
2022/07/17 09:39:49;;;;;;;4.78;3.00;;;;;;;;;;4991679;28;20022;-73
2022/07/17 09:42:33;;;;;;;4.20;2.78;;;;;;;;;;4991998;28;20045;-72
2022/07/17 09:45:00;;;;;;;5.97;2.88;;;;;;;;;;4991805;28;20022;-73
2022/07/17 09:47:27;;;;;;;4.57;2.70;;;;;;;;;;4991608;28;20479;-73
2022/07/17 09:49:54;;;;;;;4.85;2.95;;;;;;;;;;4991539;28;20061;-72
2022/07/17 09:52:22;;;;;;;5.30;2.85;;;;;;;;;;4991390;28;20117;-74
2022/07/17 09:54:51;;;;;;;4.18;2.90;;;;;;;;;;4991346;28;20434;-73
2022/07/17 09:57:16;;;;;;;4.40;2.80;;;;;;;;;;4991757;28;20509;-74
2022/07/17 09:59:43;;;;;;;3.30;2.60;;;;;;;;;;4990974;28;20078;-73
2022/07/17 10:02:09;;;;;;;5.50;3.10;;;;;;;;;;4991752;28;20054;-73
2022/07/17 10:04:35;;;;;;;4.78;2.75;;;;;;;;;;4991209;28;20069;-73
2022/07/17 10:07:01;;;;;;;4.57;2.92;;;;;;;;;;4991324;28;20451;-72
2022/07/17 10:09:26;;;;;;;7.38;2.90;;;;;;;;;;4991032;28;20098;-72
2022/07/17 10:11:53;;;;;;;5.45;2.72;;;;;;;;;;4991229;28;20026;-72
2022/07/17 10:14:19;;;;;;;5.53;2.50;;;;;;;;;;4991187;28;20058;-72
2022/07/17 10:16:45;;;;;;;4.05;2.47;;;;;;;;;;4991413;28;20030;-73
2022/07/17 10:19:22;;;;;;;3.38;2.80;;;;;;;;;;4990949;28;20165;-76
2022/07/17 10:21:56;;;;;;;5.28;2.60;;;;;;;;;;4991291;28;20030;-77
2022/07/17 10:24:22;;;;;;;6.47;2.95;;;;;;;;;;4990900;28;20034;-75
2022/07/17 10:26:51;;;;;;;3.80;2.70;;;;;;;;;;4991303;28;20042;-77
2022/07/17 10:29:34;;;;;;;6.30;2.63;;;;;;;;;;4990677;28;20045;-76
2022/07/17 10:32:13;;;;;;;5.05;2.70;;;;;;;;;;4990935;28;20031;-77
2022/07/17 10:34:44;;;;;;;4.22;2.40;;;;;;;;;;4990908;28;20034;-77
2022/07/17 10:37:17;;;;;;;3.40;2.50;;;;;;;;;;4990976;28;20098;-77
2022/07/17 10:39:53;;;;;;;4.57;2.47;;;;;;;;;;4990648;28;20069;-76
2022/07/17 10:42:41;;;;;;;4.63;2.47;;;;;;;;;;4990258;28;20030;-76
2022/07/17 10:45:16;;;;;;;5.50;2.63;;;;;;;;;;4990861;28;20018;-76
2022/07/17 10:47:46;;;;;;;3.10;2.40;;;;;;;;;;4990698;28;20033;-77
2022/07/17 10:50:12;;;;;;;6.63;2.70;;;;;;;;;;4990540;28;20700;-77
2022/07/17 10:52:38;;;;;;;3.38;2.72;;;;;;;;;;4990787;28;20042;-77
2022/07/17 10:55:05;;;;;;;4.85;2.60;;;;;;;;;;4990603;28;20027;-79
2022/07/17 10:57:32;;;;;;;6.13;2.50;;;;;;;;;;4990841;28;20026;-79
2022/07/17 10:59:57;;;;;;;3.45;2.40;;;;;;;;;;4990107;28;20057;-79
2022/07/17 11:02:29;;;;;;;4.28;2.47;;;;;;;;;;4990925;28;20026;-77
2022/07/17 11:05:05;;;;;;;6.55;2.65;;;;;;;;;;4990453;28;20073;-76
2022/07/17 11:07:31;;;;;;;4.82;2.70;;;;;;;;;;4990409;28;20023;-77
2022/07/17 11:09:56;;;;;;;5.05;2.60;;;;;;;;;;4990311;28;20037;-78
2022/07/17 11:12:31;;;;;;;4.13;2.50;;;;;;;;;;4973238;28;20034;-79
2022/07/17 11:15:01;;;;;;;3.72;2.72;;;;;;;;;;4990699;28;20113;-79
2022/07/17 11:17:27;;;;;;;3.35;2.20;;;;;;;;;;4990952;28;20031;-78
2022/07/17 11:19:53;;;;;;;4.47;2.50;;;;;;;;;;4990210;28;20425;-78
2022/07/17 11:22:24;;;;;;;5.60;2.70;;;;;;;;;;4990297;28;20153;-78
2022/07/17 11:24:50;;;;;;;3.28;2.20;;;;;;;;;;4990348;28;20050;-78
2022/07/17 11:27:23;;;;;;;3.20;2.28;;;;;;;;;;4990412;28;20482;-74
2022/07/17 11:29:49;;;;;;;4.25;2.20;;;;;;;;;;4990348;28;20038;-75
2022/07/17 11:32:15;;;;;;;4.78;2.30;;;;;;;;;;4990445;28;20042;-73
2022/07/17 11:34:40;;;;;;;3.13;2.17;;;;;;;;;;4990309;28;20031;-73
2022/07/17 11:37:08;;;;;;;2.63;2.10;;;;;;;;;;4972752;28;20030;-73
2022/07/17 11:39:56;;;;;;;5.38;2.20;;;;;;;;;;4990049;28;20065;-74
2022/07/17 11:42:22;;;;;;;4.43;1.92;;;;;;;;;;4990399;28;20022;-76
2022/07/17 11:44:53;;;;;;;2.78;2.10;;;;;;;;;;4990345;28;20048;-74
2022/07/17 11:47:21;;;;;;;3.22;2.00;;;;;;;;;;4990304;28;20031;-74
2022/07/17 11:49:47;;;;;;;2.92;2.13;;;;;;;;;;4990168;28;20026;-74
2022/07/17 11:52:20;;;;;;;5.32;2.08;;;;;;;;;;4990096;28;20037;-74
2022/07/17 11:54:51;;;;;;;4.03;2.00;;;;;;;;;;4992805;28;20105;-76
2022/07/17 11:57:18;;;;;;;3.97;1.90;;;;;;;;;;4993526;28;20023;-74
2022/07/17 11:59:44;;;;;;;4.50;2.00;;;;;;;;;;4972850;28;20507;-74
2022/07/17 12:02:15;;;;;;;2.70;1.90;;;;;;;;;;4974110;28;20023;-75
2022/07/17 12:04:54;;;;;;;3.20;2.20;;;;;;;;;;4974532;28;20027;-78
2022/07/17 12:07:20;;;;;;;2.90;2.10;;;;;;;;;;4973969;28;20558;-78
2022/07/17 12:09:46;;;;;;;2.80;1.80;;;;;;;;;;4974173;28;20034;-76
2022/07/17 12:12:23;;;;;;;2.75;1.88;;;;;;;;;;4974014;28;20022;-78
2022/07/17 12:14:53;;;;;;;5.18;2.30;;;;;;;;;;4974148;28;20387;-77
2022/07/17 12:17:19;;;;;;;2.78;2.10;;;;;;;;;;4973996;28;20053;-78
2022/07/17 12:19:44;;;;;;;2.80;1.83;;;;;;;;;;4974003;28;20112;-79
2022/07/17 12:22:10;;;;;;;3.00;1.67;;;;;;;;;;4973907;28;20152;-79
2022/07/17 12:24:37;;;;;;;2.67;1.80;;;;;;;;;;4974034;28;20365;-79
2022/07/17 12:27:06;;;;;;;3.67;1.73;;;;;;;;;;4974037;28;20518;-79
2022/07/17 12:29:32;;;;;;;4.40;1.85;;;;;;;;;;4973939;28;20507;-79
2022/07/17 12:32:05;;;;;;;4.43;2.00;;;;;;;;;;4973673;28;20085;-77
2022/07/17 12:34:31;;;;;;;2.30;1.90;;;;;;;;;;4973946;28;20031;-76
2022/07/17 12:36:57;;;;;;;2.53;1.80;;;;;;;;;;4973237;28;20169;-75
2022/07/17 12:39:22;;;;;;;4.60;1.80;;;;;;;;;;4973564;28;20085;-75
2022/07/17 12:41:48;;;;;;;2.60;1.63;;;;;;;;;;4973545;28;20482;-75
2022/07/17 12:44:13;;;;;;;3.78;1.95;;;;;;;;;;4973933;28;20071;-74
2022/07/17 12:46:39;;;;;;;3.15;1.60;;;;;;;;;;4973328;28;20467;-75
2022/07/17 12:49:04;;;;;;;4.07;1.63;;;;;;;;;;4973312;28;20142;-74
2022/07/17 12:51:30;;;;;;;3.28;1.80;;;;;;;;;;4971815;28;20476;-75
2022/07/17 12:53:57;;;;;;;2.75;1.60;;;;;;;;;;4973485;28;20030;-74
2022/07/17 12:56:22;;;;;;;2.38;1.70;;;;;;;;;;4973143;28;20043;-75
2022/07/17 12:58:48;;;;;;;2.90;1.80;;;;;;;;;;4981324;28;20049;-74
2022/07/17 13:01:14;;;;;;;3.53;1.80;;;;;;;;;;4992531;28;20057;-77
2022/07/17 13:03:40;;;;;;;3.45;1.70;;;;;;;;;;4992876;28;20054;-76
2022/07/17 13:06:05;;;;;;;2.55;1.70;;;;;;;;;;4991485;28;20018;-78
2022/07/17 13:08:31;;;;;;;2.83;1.42;;;;;;;;;;4992397;28;20046;-77
2022/07/17 13:10:57;;;;;;;3.10;1.60;;;;;;;;;;4992261;28;20057;-78
2022/07/17 13:13:23;;;;;;;2.95;1.63;;;;;;;;;;4992270;28;20034;-77
2022/07/17 13:15:48;;;;;;;2.08;1.42;;;;;;;;;;4992345;28;20034;-76
2022/07/17 13:18:14;;;;;;;2.83;1.58;;;;;;;;;;4992407;28;20033;-79
2022/07/17 13:20:40;;;;;;;2.95;1.65;;;;;;;;;;4992205;28;20022;-77
2022/07/17 13:23:05;;;;;;;2.85;1.50;;;;;;;;;;4992080;28;20026;-77
2022/07/17 13:25:31;;;;;;;3.28;1.55;;;;;;;;;;4992340;28;20030;-76
2022/07/17 13:27:56;;;;;;;2.00;1.40;;;;;;;;;;4991888;28;20125;-78
2022/07/17 13:30:22;;;;;;;3.25;1.50;;;;;;;;;;4991920;28;20031;-79
2022/07/17 13:32:48;;;;;;;3.85;1.50;;;;;;;;;;4991966;28;20570;-79
2022/07/17 13:35:13;;;;;;;3.05;1.50;;;;;;;;;;4992014;28;20026;-79
2022/07/17 13:37:39;;;;;;;2.60;1.52;;;;;;;;;;4992040;28;20050;-79
2022/07/17 13:40:06;;;;;;;3.03;1.40;;;;;;;;;;4992079;28;20026;-80
2022/07/17 13:42:32;;;;;;;1.85;1.30;;;;;;;;;;4991790;28;20034;-78
2022/07/17 13:44:57;;;;;;;3.00;1.30;;;;;;;;;;4991878;28;20027;-78
2022/07/17 13:47:22;;;;;;;1.88;1.27;;;;;;;;;;4991456;28;20041;-74
2022/07/17 13:49:48;;;;;;;1.83;1.30;;;;;;;;;;4991662;28;20169;-75
2022/07/17 13:52:13;;;;;;;3.00;1.40;;;;;;;;;;4991380;28;20026;-77
2022/07/17 13:54:39;;;;;;;2.80;1.30;;;;;;;;;;4974398;28;20664;-77
2022/07/17 13:57:04;;;;;;;2.05;1.25;;;;;;;;;;4991424;28;20041;-75
2022/07/17 13:59:30;;;;;;;2.28;1.30;;;;;;;;;;4991250;28;20051;-74
2022/07/17 14:01:55;;;;;;;1.80;1.30;;;;;;;;;;4991353;28;20034;-74
2022/07/17 14:04:21;;;;;;;2.72;1.40;;;;;;;;;;4974420;28;20023;-76
2022/07/17 14:06:46;;;;;;;1.98;1.20;;;;;;;;;;4991198;28;20026;-75
2022/07/17 14:09:12;;;;;;;2.33;1.30;;;;;;;;;;4973759;28;20739;-74
2022/07/17 14:11:37;;;;;;;1.98;1.30;;;;;;;;;;4991361;28;20178;-73
2022/07/17 14:14:04;;;;;;;3.25;1.25;;;;;;;;;;4991320;28;20026;-73
2022/07/17 14:16:30;;;;;;;3.28;1.20;;;;;;;;;;4991084;28;20041;-73
2022/07/17 14:18:58;;;;;;;4.38;1.50;;;;;;;;;;4991302;28;20030;-75
2022/07/17 14:21:33;;;;;;;2.45;1.42;;;;;;;;;;4990936;28;20026;-79
2022/07/17 14:23:58;;;;;;;2.58;1.35;;;;;;;;;;4990616;28;20518;-78
2022/07/17 14:26:24;;;;;;;4.18;1.42;;;;;;;;;;4991150;28;20064;-78
2022/07/17 14:28:50;;;;;;;2.33;1.40;;;;;;;;;;4991030;28;20058;-78
2022/07/17 14:31:16;;;;;;;3.92;1.52;;;;;;;;;;4991000;28;20022;-79
2022/07/17 14:33:42;;;;;;;2.50;1.50;;;;;;;;;;4990801;28;20060;-79
2022/07/17 14:36:09;;;;;;;1.83;1.30;;;;;;;;;;4990901;28;20049;-75
2022/07/17 14:38:34;;;;;;;2.60;1.30;;;;;;;;;;4990501;28;20040;-78
2022/07/17 14:41:00;;;;;;;2.05;1.30;;;;;;;;;;4990762;28;20105;-74